sensor_id;sensor_type;location;lat;lon;timestamp;P1;durP1;ratioP1;P2;durP2;ratioP2
29362;SDS011;16349;53.672;10.014;2023-03-15T00:01:47;5.23;;;1.00;;
29362;SDS011;16349;53.672;10.014;2023-03-15T00:04:14;4.87;;;0.83;;
29362;SDS011;16349;53.672;10.014;2023-03-15T00:06:40;2.00;;;0.97;;
29362;SDS011;16349;53.672;10.014;2023-03-15T00:09:07;6.10;;;0.93;;
29362;SDS011;16349;53.672;10.014;2023-03-15T00:11:34;2.53;;;0.97;;
29362;SDS011;16349;53.672;10.014;2023-03-15T00:14:03;3.50;;;1.17;;
29362;SDS011;16349;53.672;10.014;2023-03-15T00:16:30;1.37;;;0.80;;
29362;SDS011;16349;53.672;10.014;2023-03-15T00:18:58;5.40;;;1.03;;
29362;SDS011;16349;53.672;10.014;2023-03-15T00:21:25;3.93;;;0.67;;
29362;SDS011;16349;53.672;10.014;2023-03-15T00:23:54;3.90;;;1.00;;
29362;SDS011;16349;53.672;10.014;2023-03-15T00:26:22;4.57;;;1.10;;
29362;SDS011;16349;53.672;10.014;2023-03-15T00:28:48;2.57;;;0.87;;
29362;SDS011;16349;53.672;10.014;2023-03-15T00:31:17;3.97;;;1.20;;
29362;SDS011;16349;53.672;10.014;2023-03-15T00:33:46;2.50;;;0.93;;
29362;SDS011;16349;53.672;10.014;2023-03-15T00:36:14;2.80;;;1.07;;
29362;SDS011;16349;53.672;10.014;2023-03-15T00:38:41;3.83;;;1.07;;
29362;SDS011;16349;53.672;10.014;2023-03-15T00:41:10;2.67;;;0.87;;
29362;SDS011;16349;53.672;10.014;2023-03-15T00:43:39;3.27;;;1.13;;
29362;SDS011;16349;53.672;10.014;2023-03-15T00:46:06;2.03;;;0.83;;
29362;SDS011;16349;53.672;10.014;2023-03-15T00:48:35;1.83;;;0.90;;
29362;SDS011;16349;53.672;10.014;2023-03-15T00:51:03;2.00;;;1.10;;
29362;SDS011;16349;53.672;10.014;2023-03-15T00:53:32;3.37;;;0.70;;
29362;SDS011;16349;53.672;10.014;2023-03-15T00:56:02;5.93;;;1.03;;
29362;SDS011;16349;53.672;10.014;2023-03-15T00:58:31;1.40;;;0.80;;
29362;SDS011;16349;53.672;10.014;2023-03-15T01:00:58;3.73;;;0.93;;
29362;SDS011;16349;53.672;10.014;2023-03-15T01:03:26;3.60;;;1.03;;
29362;SDS011;16349;53.672;10.014;2023-03-15T01:05:54;2.43;;;0.90;;
29362;SDS011;16349;53.672;10.014;2023-03-15T01:08:21;1.63;;;0.50;;
29362;SDS011;16349;53.672;10.014;2023-03-15T01:10:48;3.80;;;0.80;;
29362;SDS011;16349;53.672;10.014;2023-03-15T01:13:16;5.33;;;1.63;;
29362;SDS011;16349;53.672;10.014;2023-03-15T01:15:44;1.37;;;0.80;;
29362;SDS011;16349;53.672;10.014;2023-03-15T01:18:11;4.53;;;1.20;;
29362;SDS011;16349;53.672;10.014;2023-03-15T01:20:41;5.77;;;1.27;;
29362;SDS011;16349;53.672;10.014;2023-03-15T01:23:29;1.77;;;0.90;;
29362;SDS011;16349;53.672;10.014;2023-03-15T01:25:58;3.27;;;1.03;;
29362;SDS011;16349;53.672;10.014;2023-03-15T01:28:26;4.87;;;1.00;;
29362;SDS011;16349;53.672;10.014;2023-03-15T01:30:53;2.10;;;1.37;;
29362;SDS011;16349;53.672;10.014;2023-03-15T01:33:21;3.87;;;0.97;;
29362;SDS011;16349;53.672;10.014;2023-03-15T01:35:56;4.27;;;1.00;;
29362;SDS011;16349;53.672;10.014;2023-03-15T01:38:25;3.97;;;1.00;;
29362;SDS011;16349;53.672;10.014;2023-03-15T01:40:54;4.43;;;1.27;;
29362;SDS011;16349;53.672;10.014;2023-03-15T01:43:22;1.80;;;1.00;;
29362;SDS011;16349;53.672;10.014;2023-03-15T01:45:56;4.63;;;1.40;;
29362;SDS011;16349;53.672;10.014;2023-03-15T01:48:34;3.70;;;1.07;;
29362;SDS011;16349;53.672;10.014;2023-03-15T01:51:06;2.03;;;1.37;;
29362;SDS011;16349;53.672;10.014;2023-03-15T01:53:37;3.40;;;1.03;;
29362;SDS011;16349;53.672;10.014;2023-03-15T01:56:08;6.40;;;1.27;;
29362;SDS011;16349;53.672;10.014;2023-03-15T01:58:36;1.57;;;1.00;;
29362;SDS011;16349;53.672;10.014;2023-03-15T02:01:05;3.10;;;0.90;;
29362;SDS011;16349;53.672;10.014;2023-03-15T02:03:39;2.40;;;1.00;;
29362;SDS011;16349;53.672;10.014;2023-03-15T02:06:12;4.23;;;1.00;;
29362;SDS011;16349;53.672;10.014;2023-03-15T02:08:48;5.07;;;1.13;;
29362;SDS011;16349;53.672;10.014;2023-03-15T02:11:19;3.20;;;1.40;;
29362;SDS011;16349;53.672;10.014;2023-03-15T02:13:50;1.30;;;1.20;;
29362;SDS011;16349;53.672;10.014;2023-03-15T02:16:19;1.73;;;0.80;;
29362;SDS011;16349;53.672;10.014;2023-03-15T02:18:53;1.33;;;1.20;;
29362;SDS011;16349;53.672;10.014;2023-03-15T02:21:25;1.20;;;0.90;;
29362;SDS011;16349;53.672;10.014;2023-03-15T02:24:01;2.27;;;1.03;;
29362;SDS011;16349;53.672;10.014;2023-03-15T02:26:40;1.77;;;1.00;;
29362;SDS011;16349;53.672;10.014;2023-03-15T02:29:12;1.70;;;1.30;;
29362;SDS011;16349;53.672;10.014;2023-03-15T02:31:39;2.67;;;1.40;;
29362;SDS011;16349;53.672;10.014;2023-03-15T02:34:07;2.83;;;1.20;;
29362;SDS011;16349;53.672;10.014;2023-03-15T02:36:34;5.23;;;1.60;;
29362;SDS011;16349;53.672;10.014;2023-03-15T02:39:12;1.70;;;1.60;;
29362;SDS011;16349;53.672;10.014;2023-03-15T02:41:40;2.70;;;1.80;;
29362;SDS011;16349;53.672;10.014;2023-03-15T02:44:10;3.83;;;1.87;;
29362;SDS011;16349;53.672;10.014;2023-03-15T02:46:42;2.23;;;1.70;;
29362;SDS011;16349;53.672;10.014;2023-03-15T02:49:11;3.27;;;1.83;;
29362;SDS011;16349;53.672;10.014;2023-03-15T02:51:38;2.17;;;1.80;;
29362;SDS011;16349;53.672;10.014;2023-03-15T02:54:06;2.73;;;1.67;;
29362;SDS011;16349;53.672;10.014;2023-03-15T02:56:33;1.90;;;1.77;;
29362;SDS011;16349;53.672;10.014;2023-03-15T02:59:00;2.43;;;1.53;;
29362;SDS011;16349;53.672;10.014;2023-03-15T03:01:30;3.77;;;1.87;;
29362;SDS011;16349;53.672;10.014;2023-03-15T03:03:57;3.30;;;1.83;;
29362;SDS011;16349;53.672;10.014;2023-03-15T03:06:24;1.93;;;1.73;;
29362;SDS011;16349;53.672;10.014;2023-03-15T03:08:51;2.53;;;1.70;;
29362;SDS011;16349;53.672;10.014;2023-03-15T03:11:18;4.53;;;1.97;;
29362;SDS011;16349;53.672;10.014;2023-03-15T03:13:45;7.43;;;2.33;;
29362;SDS011;16349;53.672;10.014;2023-03-15T03:16:12;4.43;;;2.10;;
29362;SDS011;16349;53.672;10.014;2023-03-15T03:18:42;2.97;;;2.30;;
29362;SDS011;16349;53.672;10.014;2023-03-15T03:21:09;3.37;;;2.20;;
29362;SDS011;16349;53.672;10.014;2023-03-15T03:23:36;3.67;;;2.20;;
29362;SDS011;16349;53.672;10.014;2023-03-15T03:26:10;2.60;;;2.20;;
29362;SDS011;16349;53.672;10.014;2023-03-15T03:28:42;4.37;;;1.87;;
29362;SDS011;16349;53.672;10.014;2023-03-15T03:31:14;2.30;;;2.10;;
29362;SDS011;16349;53.672;10.014;2023-03-15T03:33:43;2.90;;;2.27;;
29362;SDS011;16349;53.672;10.014;2023-03-15T03:36:10;4.00;;;2.53;;
29362;SDS011;16349;53.672;10.014;2023-03-15T03:38:38;2.90;;;2.20;;
29362;SDS011;16349;53.672;10.014;2023-03-15T03:41:06;3.10;;;2.53;;
29362;SDS011;16349;53.672;10.014;2023-03-15T03:43:33;3.07;;;2.23;;
29362;SDS011;16349;53.672;10.014;2023-03-15T03:46:02;4.57;;;2.23;;
29362;SDS011;16349;53.672;10.014;2023-03-15T03:48:32;4.87;;;2.67;;
29362;SDS011;16349;53.672;10.014;2023-03-15T03:51:02;6.00;;;2.83;;
29362;SDS011;16349;53.672;10.014;2023-03-15T03:53:29;3.83;;;2.33;;
29362;SDS011;16349;53.672;10.014;2023-03-15T03:56:18;5.37;;;2.30;;
29362;SDS011;16349;53.672;10.014;2023-03-15T03:58:45;5.03;;;2.97;;
29362;SDS011;16349;53.672;10.014;2023-03-15T04:01:30;2.13;;;2.00;;
29362;SDS011;16349;53.672;10.014;2023-03-15T04:04:19;5.37;;;2.13;;
29362;SDS011;16349;53.672;10.014;2023-03-15T04:06:47;3.77;;;1.87;;
29362;SDS011;16349;53.672;10.014;2023-03-15T04:09:20;3.20;;;1.77;;
29362;SDS011;16349;53.672;10.014;2023-03-15T04:11:49;3.17;;;1.63;;
29362;SDS011;16349;53.672;10.014;2023-03-15T04:14:16;2.37;;;1.83;;
29362;SDS011;16349;53.672;10.014;2023-03-15T04:16:45;1.80;;;1.30;;
29362;SDS011;16349;53.672;10.014;2023-03-15T04:19:14;3.13;;;1.27;;
29362;SDS011;16349;53.672;10.014;2023-03-15T04:21:41;1.47;;;1.37;;
29362;SDS011;16349;53.672;10.014;2023-03-15T04:24:33;1.53;;;1.10;;
29362;SDS011;16349;53.672;10.014;2023-03-15T04:27:10;2.90;;;1.17;;
29362;SDS011;16349;53.672;10.014;2023-03-15T04:29:47;2.63;;;1.17;;
29362;SDS011;16349;53.672;10.014;2023-03-15T04:32:30;2.80;;;1.10;;
29362;SDS011;16349;53.672;10.014;2023-03-15T04:35:10;1.43;;;1.07;;
29362;SDS011;16349;53.672;10.014;2023-03-15T04:37:52;3.43;;;1.67;;
29362;SDS011;16349;53.672;10.014;2023-03-15T04:40:43;3.57;;;1.00;;
29362;SDS011;16349;53.672;10.014;2023-03-15T04:43:20;4.83;;;1.60;;
29362;SDS011;16349;53.672;10.014;2023-03-15T04:46:14;4.13;;;1.27;;
29362;SDS011;16349;53.672;10.014;2023-03-15T04:49:06;2.80;;;1.27;;
29362;SDS011;16349;53.672;10.014;2023-03-15T04:51:50;12.00;;;2.40;;
29362;SDS011;16349;53.672;10.014;2023-03-15T04:54:30;4.90;;;1.70;;
29362;SDS011;16349;53.672;10.014;2023-03-15T04:57:15;4.07;;;1.40;;
29362;SDS011;16349;53.672;10.014;2023-03-15T05:00:01;8.50;;;3.10;;
29362;SDS011;16349;53.672;10.014;2023-03-15T05:02:51;8.93;;;3.53;;
29362;SDS011;16349;53.672;10.014;2023-03-15T05:05:43;7.90;;;2.13;;
29362;SDS011;16349;53.672;10.014;2023-03-15T05:08:30;8.90;;;3.00;;
29362;SDS011;16349;53.672;10.014;2023-03-15T05:11:17;5.53;;;3.10;;
29362;SDS011;16349;53.672;10.014;2023-03-15T05:13:53;7.67;;;3.57;;
29362;SDS011;16349;53.672;10.014;2023-03-15T05:16:20;4.73;;;3.13;;
29362;SDS011;16349;53.672;10.014;2023-03-15T05:18:54;5.70;;;3.80;;
29362;SDS011;16349;53.672;10.014;2023-03-15T05:21:45;6.47;;;3.70;;
29362;SDS011;16349;53.672;10.014;2023-03-15T05:24:34;10.10;;;5.13;;
29362;SDS011;16349;53.672;10.014;2023-03-15T05:27:12;9.23;;;5.27;;
29362;SDS011;16349;53.672;10.014;2023-03-15T05:29:58;10.47;;;4.97;;
29362;SDS011;16349;53.672;10.014;2023-03-15T05:33:01;7.60;;;4.47;;
29362;SDS011;16349;53.672;10.014;2023-03-15T05:35:39;11.07;;;5.70;;
29362;SDS011;16349;53.672;10.014;2023-03-15T05:38:17;9.20;;;5.37;;
29362;SDS011;16349;53.672;10.014;2023-03-15T05:40:56;11.43;;;6.40;;
29362;SDS011;16349;53.672;10.014;2023-03-15T05:43:36;11.43;;;5.33;;
29362;SDS011;16349;53.672;10.014;2023-03-15T05:46:28;14.40;;;6.73;;
29362;SDS011;16349;53.672;10.014;2023-03-15T05:49:22;10.30;;;5.80;;
29362;SDS011;16349;53.672;10.014;2023-03-15T05:52:07;12.53;;;5.63;;
29362;SDS011;16349;53.672;10.014;2023-03-15T05:54:45;11.83;;;5.80;;
29362;SDS011;16349;53.672;10.014;2023-03-15T05:57:34;8.83;;;5.13;;
29362;SDS011;16349;53.672;10.014;2023-03-15T06:00:17;10.27;;;5.13;;
29362;SDS011;16349;53.672;10.014;2023-03-15T06:02:49;9.97;;;5.50;;
29362;SDS011;16349;53.672;10.014;2023-03-15T06:05:28;8.93;;;5.83;;
29362;SDS011;16349;53.672;10.014;2023-03-15T06:07:59;7.43;;;4.70;;
29362;SDS011;16349;53.672;10.014;2023-03-15T06:10:26;8.20;;;5.30;;
29362;SDS011;16349;53.672;10.014;2023-03-15T06:12:56;9.43;;;4.70;;
29362;SDS011;16349;53.672;10.014;2023-03-15T06:15:23;12.17;;;5.40;;
29362;SDS011;16349;53.672;10.014;2023-03-15T06:17:53;14.47;;;6.17;;
29362;SDS011;16349;53.672;10.014;2023-03-15T06:20:20;12.03;;;5.30;;
29362;SDS011;16349;53.672;10.014;2023-03-15T06:22:48;20.43;;;7.37;;
29362;SDS011;16349;53.672;10.014;2023-03-15T06:25:25;5.30;;;4.60;;
29362;SDS011;16349;53.672;10.014;2023-03-15T06:27:53;12.63;;;6.07;;
29362;SDS011;16349;53.672;10.014;2023-03-15T06:30:20;14.30;;;7.20;;
29362;SDS011;16349;53.672;10.014;2023-03-15T06:32:54;16.67;;;8.20;;
29362;SDS011;16349;53.672;10.014;2023-03-15T06:35:20;13.77;;;7.43;;
29362;SDS011;16349;53.672;10.014;2023-03-15T06:38:09;14.90;;;7.10;;
29362;SDS011;16349;53.672;10.014;2023-03-15T06:40:38;18.10;;;6.17;;
29362;SDS011;16349;53.672;10.014;2023-03-15T06:43:05;12.23;;;5.77;;
29362;SDS011;16349;53.672;10.014;2023-03-15T06:45:34;17.17;;;7.20;;
29362;SDS011;16349;53.672;10.014;2023-03-15T06:48:03;15.83;;;5.23;;
29362;SDS011;16349;53.672;10.014;2023-03-15T06:50:31;16.10;;;5.53;;
29362;SDS011;16349;53.672;10.014;2023-03-15T06:52:58;21.10;;;7.00;;
29362;SDS011;16349;53.672;10.014;2023-03-15T06:55:27;21.83;;;8.03;;
29362;SDS011;16349;53.672;10.014;2023-03-15T06:57:54;23.87;;;7.57;;
29362;SDS011;16349;53.672;10.014;2023-03-15T07:00:22;12.00;;;6.10;;
29362;SDS011;16349;53.672;10.014;2023-03-15T07:02:49;13.53;;;6.80;;
29362;SDS011;16349;53.672;10.014;2023-03-15T07:05:18;9.53;;;4.63;;
29362;SDS011;16349;53.672;10.014;2023-03-15T07:07:45;9.67;;;4.83;;
29362;SDS011;16349;53.672;10.014;2023-03-15T07:10:12;11.23;;;4.67;;
29362;SDS011;16349;53.672;10.014;2023-03-15T07:12:38;7.43;;;4.70;;
29362;SDS011;16349;53.672;10.014;2023-03-15T07:15:06;10.63;;;5.07;;
29362;SDS011;16349;53.672;10.014;2023-03-15T07:17:34;8.93;;;5.30;;
29362;SDS011;16349;53.672;10.014;2023-03-15T07:20:01;6.97;;;4.50;;
29362;SDS011;16349;53.672;10.014;2023-03-15T07:22:32;6.70;;;3.00;;
29362;SDS011;16349;53.672;10.014;2023-03-15T07:24:59;4.60;;;2.87;;
29362;SDS011;16349;53.672;10.014;2023-03-15T07:27:26;3.20;;;2.20;;
29362;SDS011;16349;53.672;10.014;2023-03-15T07:29:55;3.90;;;2.60;;
29362;SDS011;16349;53.672;10.014;2023-03-15T07:32:22;3.03;;;2.43;;
29362;SDS011;16349;53.672;10.014;2023-03-15T07:34:49;4.90;;;2.87;;
29362;SDS011;16349;53.672;10.014;2023-03-15T07:37:16;3.13;;;2.50;;
29362;SDS011;16349;53.672;10.014;2023-03-15T07:39:43;5.23;;;2.53;;
29362;SDS011;16349;53.672;10.014;2023-03-15T07:42:10;3.40;;;2.97;;
29362;SDS011;16349;53.672;10.014;2023-03-15T07:44:39;4.03;;;3.00;;
29362;SDS011;16349;53.672;10.014;2023-03-15T07:47:09;5.97;;;3.80;;
29362;SDS011;16349;53.672;10.014;2023-03-15T07:49:38;5.20;;;3.80;;
29362;SDS011;16349;53.672;10.014;2023-03-15T07:52:05;6.07;;;3.23;;
29362;SDS011;16349;53.672;10.014;2023-03-15T07:54:33;4.10;;;3.40;;
29362;SDS011;16349;53.672;10.014;2023-03-15T07:57:02;4.80;;;3.40;;
29362;SDS011;16349;53.672;10.014;2023-03-15T07:59:30;3.87;;;3.30;;
29362;SDS011;16349;53.672;10.014;2023-03-15T08:02:19;6.53;;;4.10;;
29362;SDS011;16349;53.672;10.014;2023-03-15T08:04:47;5.03;;;3.87;;
29362;SDS011;16349;53.672;10.014;2023-03-15T08:07:15;7.43;;;3.80;;
29362;SDS011;16349;53.672;10.014;2023-03-15T08:09:42;9.40;;;4.20;;
29362;SDS011;16349;53.672;10.014;2023-03-15T08:12:10;9.40;;;4.63;;
29362;SDS011;16349;53.672;10.014;2023-03-15T08:14:59;11.23;;;4.77;;
29362;SDS011;16349;53.672;10.014;2023-03-15T08:17:28;7.07;;;4.00;;
29362;SDS011;16349;53.672;10.014;2023-03-15T08:19:54;18.13;;;6.13;;
29362;SDS011;16349;53.672;10.014;2023-03-15T08:22:21;5.80;;;3.60;;
29362;SDS011;16349;53.672;10.014;2023-03-15T08:24:49;5.87;;;4.27;;
29362;SDS011;16349;53.672;10.014;2023-03-15T08:27:19;5.17;;;3.37;;
29362;SDS011;16349;53.672;10.014;2023-03-15T08:30:07;7.70;;;3.03;;
29362;SDS011;16349;53.672;10.014;2023-03-15T08:32:36;4.77;;;3.70;;
29362;SDS011;16349;53.672;10.014;2023-03-15T08:35:05;11.93;;;3.90;;
29362;SDS011;16349;53.672;10.014;2023-03-15T08:37:34;9.23;;;3.80;;
29362;SDS011;16349;53.672;10.014;2023-03-15T08:40:02;12.67;;;5.27;;
29362;SDS011;16349;53.672;10.014;2023-03-15T08:42:33;12.57;;;5.43;;
29362;SDS011;16349;53.672;10.014;2023-03-15T08:45:00;11.03;;;4.43;;
29362;SDS011;16349;53.672;10.014;2023-03-15T08:47:28;3.90;;;2.73;;
29362;SDS011;16349;53.672;10.014;2023-03-15T08:49:55;11.23;;;5.50;;
29362;SDS011;16349;53.672;10.014;2023-03-15T08:52:23;4.43;;;2.33;;
29362;SDS011;16349;53.672;10.014;2023-03-15T08:54:51;4.40;;;2.27;;
29362;SDS011;16349;53.672;10.014;2023-03-15T08:57:17;2.87;;;2.00;;
29362;SDS011;16349;53.672;10.014;2023-03-15T08:59:45;1.50;;;1.10;;
29362;SDS011;16349;53.672;10.014;2023-03-15T09:02:34;2.87;;;1.13;;
29362;SDS011;16349;53.672;10.014;2023-03-15T09:05:02;2.10;;;1.20;;
29362;SDS011;16349;53.672;10.014;2023-03-15T09:07:33;1.60;;;1.00;;
29362;SDS011;16349;53.672;10.014;2023-03-15T09:10:00;3.80;;;1.20;;
29362;SDS011;16349;53.672;10.014;2023-03-15T09:12:50;1.17;;;0.90;;
29362;SDS011;16349;53.672;10.014;2023-03-15T09:15:20;4.13;;;1.00;;
29362;SDS011;16349;53.672;10.014;2023-03-15T09:17:47;3.53;;;1.13;;
29362;SDS011;16349;53.672;10.014;2023-03-15T09:20:17;5.60;;;0.83;;
29362;SDS011;16349;53.672;10.014;2023-03-15T09:23:08;3.03;;;1.03;;
29362;SDS011;16349;53.672;10.014;2023-03-15T09:25:37;7.97;;;1.73;;
29362;SDS011;16349;53.672;10.014;2023-03-15T09:28:07;4.33;;;0.97;;
29362;SDS011;16349;53.672;10.014;2023-03-15T09:30:37;2.07;;;1.20;;
29362;SDS011;16349;53.672;10.014;2023-03-15T09:33:06;2.63;;;1.03;;
29362;SDS011;16349;53.672;10.014;2023-03-15T09:35:33;2.57;;;0.80;;
29362;SDS011;16349;53.672;10.014;2023-03-15T09:38:01;4.17;;;1.10;;
29362;SDS011;16349;53.672;10.014;2023-03-15T09:40:29;3.30;;;0.60;;
29362;SDS011;16349;53.672;10.014;2023-03-15T09:43:03;3.30;;;0.60;;
29362;SDS011;16349;53.672;10.014;2023-03-15T09:45:53;1.80;;;0.63;;
29362;SDS011;16349;53.672;10.014;2023-03-15T09:48:29;0.80;;;0.60;;
29362;SDS011;16349;53.672;10.014;2023-03-15T09:51:01;3.23;;;0.90;;
29362;SDS011;16349;53.672;10.014;2023-03-15T09:53:34;1.73;;;0.97;;
29362;SDS011;16349;53.672;10.014;2023-03-15T09:56:10;6.90;;;1.00;;
29362;SDS011;16349;53.672;10.014;2023-03-15T09:58:47;2.63;;;0.90;;
29362;SDS011;16349;53.672;10.014;2023-03-15T10:01:18;3.43;;;0.70;;
29362;SDS011;16349;53.672;10.014;2023-03-15T10:03:51;7.97;;;1.00;;
29362;SDS011;16349;53.672;10.014;2023-03-15T10:06:20;3.70;;;1.33;;
29362;SDS011;16349;53.672;10.014;2023-03-15T10:08:53;1.97;;;0.80;;
29362;SDS011;16349;53.672;10.014;2023-03-15T10:11:24;5.67;;;0.87;;
29362;SDS011;16349;53.672;10.014;2023-03-15T10:14:02;1.97;;;0.90;;
29362;SDS011;16349;53.672;10.014;2023-03-15T10:16:42;2.47;;;0.80;;
29362;SDS011;16349;53.672;10.014;2023-03-15T10:19:16;2.50;;;1.23;;
29362;SDS011;16349;53.672;10.014;2023-03-15T10:22:11;4.40;;;1.00;;
29362;SDS011;16349;53.672;10.014;2023-03-15T10:24:47;1.80;;;0.90;;
29362;SDS011;16349;53.672;10.014;2023-03-15T10:27:18;3.03;;;0.70;;
29362;SDS011;16349;53.672;10.014;2023-03-15T10:30:12;4.73;;;1.03;;
29362;SDS011;16349;53.672;10.014;2023-03-15T10:32:43;2.87;;;0.63;;
29362;SDS011;16349;53.672;10.014;2023-03-15T10:35:35;5.20;;;0.90;;
29362;SDS011;16349;53.672;10.014;2023-03-15T10:38:11;3.50;;;0.77;;
29362;SDS011;16349;53.672;10.014;2023-03-15T10:40:40;4.10;;;0.63;;
29362;SDS011;16349;53.672;10.014;2023-03-15T10:45:57;6.13;;;1.57;;
29362;SDS011;16349;53.672;10.014;2023-03-15T10:48:29;6.07;;;1.00;;
29362;SDS011;16349;53.672;10.014;2023-03-15T10:51:01;5.10;;;0.80;;
29362;SDS011;16349;53.672;10.014;2023-03-15T10:53:31;2.23;;;0.50;;
29362;SDS011;16349;53.672;10.014;2023-03-15T10:56:00;1.80;;;0.70;;
29362;SDS011;16349;53.672;10.014;2023-03-15T10:58:38;2.53;;;0.60;;
29362;SDS011;16349;53.672;10.014;2023-03-15T11:01:10;1.67;;;0.80;;
29362;SDS011;16349;53.672;10.014;2023-03-15T11:03:59;2.53;;;0.70;;
29362;SDS011;16349;53.672;10.014;2023-03-15T11:06:36;2.90;;;0.90;;
29362;SDS011;16349;53.672;10.014;2023-03-15T11:09:08;2.50;;;0.90;;
29362;SDS011;16349;53.672;10.014;2023-03-15T11:11:50;3.00;;;0.97;;
29362;SDS011;16349;53.672;10.014;2023-03-15T11:14:22;3.80;;;1.37;;
29362;SDS011;16349;53.672;10.014;2023-03-15T11:16:52;4.03;;;0.80;;
29362;SDS011;16349;53.672;10.014;2023-03-15T11:19:26;1.97;;;0.80;;
29362;SDS011;16349;53.672;10.014;2023-03-15T11:21:55;1.10;;;0.43;;
29362;SDS011;16349;53.672;10.014;2023-03-15T11:24:25;3.63;;;0.70;;
29362;SDS011;16349;53.672;10.014;2023-03-15T11:26:57;2.47;;;0.87;;
29362;SDS011;16349;53.672;10.014;2023-03-15T11:29:28;1.90;;;0.40;;
29362;SDS011;16349;53.672;10.014;2023-03-15T11:31:57;2.03;;;0.40;;
29362;SDS011;16349;53.672;10.014;2023-03-15T11:34:34;4.93;;;1.27;;
29362;SDS011;16349;53.672;10.014;2023-03-15T11:37:04;3.43;;;0.90;;
29362;SDS011;16349;53.672;10.014;2023-03-15T11:39:38;4.03;;;0.67;;
29362;SDS011;16349;53.672;10.014;2023-03-15T11:42:12;2.13;;;0.77;;
29362;SDS011;16349;53.672;10.014;2023-03-15T11:44:46;3.73;;;0.80;;
29362;SDS011;16349;53.672;10.014;2023-03-15T11:47:16;2.03;;;0.73;;
29362;SDS011;16349;53.672;10.014;2023-03-15T11:49:53;3.03;;;0.50;;
29362;SDS011;16349;53.672;10.014;2023-03-15T11:52:22;2.23;;;0.57;;
29362;SDS011;16349;53.672;10.014;2023-03-15T11:54:53;3.73;;;0.73;;
29362;SDS011;16349;53.672;10.014;2023-03-15T11:57:42;5.47;;;1.20;;
29362;SDS011;16349;53.672;10.014;2023-03-15T12:00:16;5.30;;;0.57;;
29362;SDS011;16349;53.672;10.014;2023-03-15T12:02:49;1.50;;;0.77;;
29362;SDS011;16349;53.672;10.014;2023-03-15T12:08:15;6.17;;;1.20;;
29362;SDS011;16349;53.672;10.014;2023-03-15T12:10:45;2.10;;;1.13;;
29362;SDS011;16349;53.672;10.014;2023-03-15T12:13:18;3.50;;;0.50;;
29362;SDS011;16349;53.672;10.014;2023-03-15T12:15:50;1.40;;;0.70;;
29362;SDS011;16349;53.672;10.014;2023-03-15T12:18:31;2.33;;;0.70;;
29362;SDS011;16349;53.672;10.014;2023-03-15T12:21:08;2.97;;;0.90;;
29362;SDS011;16349;53.672;10.014;2023-03-15T12:23:39;2.77;;;0.77;;
29362;SDS011;16349;53.672;10.014;2023-03-15T12:26:09;1.80;;;0.70;;
29362;SDS011;16349;53.672;10.014;2023-03-15T12:28:50;5.20;;;0.90;;
29362;SDS011;16349;53.672;10.014;2023-03-15T12:31:18;5.10;;;0.90;;
29362;SDS011;16349;53.672;10.014;2023-03-15T12:33:46;4.13;;;0.60;;
29362;SDS011;16349;53.672;10.014;2023-03-15T12:36:20;2.77;;;0.63;;
29362;SDS011;16349;53.672;10.014;2023-03-15T12:38:58;2.60;;;0.70;;
29362;SDS011;16349;53.672;10.014;2023-03-15T12:41:34;5.20;;;0.93;;
29362;SDS011;16349;53.672;10.014;2023-03-15T12:47:05;7.13;;;0.90;;
29362;SDS011;16349;53.672;10.014;2023-03-15T12:49:35;1.23;;;0.63;;
29362;SDS011;16349;53.672;10.014;2023-03-15T12:52:12;1.67;;;0.60;;
29362;SDS011;16349;53.672;10.014;2023-03-15T12:54:57;2.73;;;0.60;;
29362;SDS011;16349;53.672;10.014;2023-03-15T12:57:35;2.73;;;0.50;;
29362;SDS011;16349;53.672;10.014;2023-03-15T13:00:06;2.50;;;0.73;;
29362;SDS011;16349;53.672;10.014;2023-03-15T13:02:42;1.60;;;0.50;;
29362;SDS011;16349;53.672;10.014;2023-03-15T13:05:16;3.93;;;1.00;;
29362;SDS011;16349;53.672;10.014;2023-03-15T13:07:50;5.23;;;0.70;;
29362;SDS011;16349;53.672;10.014;2023-03-15T13:10:25;2.97;;;0.90;;
29362;SDS011;16349;53.672;10.014;2023-03-15T13:13:13;3.73;;;0.80;;
29362;SDS011;16349;53.672;10.014;2023-03-15T13:16:20;2.60;;;0.70;;
29362;SDS011;16349;53.672;10.014;2023-03-15T13:18:57;2.73;;;0.90;;
29362;SDS011;16349;53.672;10.014;2023-03-15T13:21:30;3.87;;;1.00;;
29362;SDS011;16349;53.672;10.014;2023-03-15T13:24:02;2.80;;;1.27;;
29362;SDS011;16349;53.672;10.014;2023-03-15T13:26:45;3.87;;;0.80;;
29362;SDS011;16349;53.672;10.014;2023-03-15T13:29:37;5.77;;;1.00;;
29362;SDS011;16349;53.672;10.014;2023-03-15T13:32:11;2.83;;;0.93;;
29362;SDS011;16349;53.672;10.014;2023-03-15T13:34:40;8.20;;;1.60;;
29362;SDS011;16349;53.672;10.014;2023-03-15T13:37:10;7.60;;;1.57;;
29362;SDS011;16349;53.672;10.014;2023-03-15T13:39:51;4.60;;;1.20;;
29362;SDS011;16349;53.672;10.014;2023-03-15T13:42:19;3.13;;;0.87;;
29362;SDS011;16349;53.672;10.014;2023-03-15T13:45:10;4.80;;;0.80;;
29362;SDS011;16349;53.672;10.014;2023-03-15T13:48:01;6.23;;;1.23;;
29362;SDS011;16349;53.672;10.014;2023-03-15T13:50:30;5.37;;;1.10;;
29362;SDS011;16349;53.672;10.014;2023-03-15T13:52:57;6.97;;;1.33;;
29362;SDS011;16349;53.672;10.014;2023-03-15T13:55:28;4.90;;;1.30;;
29362;SDS011;16349;53.672;10.014;2023-03-15T13:57:59;5.23;;;0.90;;
29362;SDS011;16349;53.672;10.014;2023-03-15T14:00:33;3.37;;;1.23;;
29362;SDS011;16349;53.672;10.014;2023-03-15T14:03:02;6.10;;;1.00;;
29362;SDS011;16349;53.672;10.014;2023-03-15T14:05:33;3.50;;;1.30;;
29362;SDS011;16349;53.672;10.014;2023-03-15T14:08:15;8.03;;;1.40;;
29362;SDS011;16349;53.672;10.014;2023-03-15T14:10:59;3.90;;;1.30;;
29362;SDS011;16349;53.672;10.014;2023-03-15T14:13:27;9.87;;;1.80;;
29362;SDS011;16349;53.672;10.014;2023-03-15T14:15:58;4.20;;;0.80;;
29362;SDS011;16349;53.672;10.014;2023-03-15T14:18:30;5.07;;;1.27;;
29362;SDS011;16349;53.672;10.014;2023-03-15T14:20:59;6.40;;;1.20;;
29362;SDS011;16349;53.672;10.014;2023-03-15T14:23:29;4.80;;;1.03;;
29362;SDS011;16349;53.672;10.014;2023-03-15T14:26:21;6.27;;;1.07;;
29362;SDS011;16349;53.672;10.014;2023-03-15T14:28:53;6.07;;;1.07;;
29362;SDS011;16349;53.672;10.014;2023-03-15T14:31:25;6.43;;;1.00;;
29362;SDS011;16349;53.672;10.014;2023-03-15T14:33:56;3.77;;;1.00;;
29362;SDS011;16349;53.672;10.014;2023-03-15T14:36:38;5.30;;;1.47;;
29362;SDS011;16349;53.672;10.014;2023-03-15T14:39:11;4.90;;;1.13;;
29362;SDS011;16349;53.672;10.014;2023-03-15T14:41:44;4.03;;;1.30;;
29362;SDS011;16349;53.672;10.014;2023-03-15T14:44:12;6.00;;;1.23;;
29362;SDS011;16349;53.672;10.014;2023-03-15T14:46:38;5.53;;;1.50;;
29362;SDS011;16349;53.672;10.014;2023-03-15T14:49:09;4.70;;;1.10;;
29362;SDS011;16349;53.672;10.014;2023-03-15T14:51:39;7.03;;;1.40;;
29362;SDS011;16349;53.672;10.014;2023-03-15T14:54:28;3.80;;;1.10;;
29362;SDS011;16349;53.672;10.014;2023-03-15T14:56:58;4.90;;;1.10;;
29362;SDS011;16349;53.672;10.014;2023-03-15T14:59:25;7.63;;;1.30;;
29362;SDS011;16349;53.672;10.014;2023-03-15T15:01:56;5.43;;;2.07;;
29362;SDS011;16349;53.672;10.014;2023-03-15T15:04:25;5.87;;;1.20;;
29362;SDS011;16349;53.672;10.014;2023-03-15T15:06:58;7.27;;;1.43;;
29362;SDS011;16349;53.672;10.014;2023-03-15T15:09:27;4.77;;;1.27;;
29362;SDS011;16349;53.672;10.014;2023-03-15T15:11:55;4.33;;;1.30;;
29362;SDS011;16349;53.672;10.014;2023-03-15T15:14:23;5.57;;;1.30;;
29362;SDS011;16349;53.672;10.014;2023-03-15T15:16:49;6.93;;;1.30;;